createdAt,value
2017-01-05T00:00:16.384Z,0
2017-01-05T00:01:16.426Z,0
2017-01-05T00:02:17.207Z,0
2017-01-05T00:03:16.423Z,0
2017-01-05T00:04:16.831Z,0
2017-01-05T00:05:16.452Z,0
2017-01-05T00:06:16.460Z,0
2017-01-05T00:07:16.479Z,0
2017-01-05T00:08:16.484Z,0
2017-01-05T00:09:16.515Z,0
2017-01-05T00:10:16.908Z,0
2017-01-05T00:11:16.522Z,0
2017-01-05T00:12:16.533Z,0
2017-01-05T00:13:17.345Z,0
2017-01-05T00:14:16.958Z,0
2017-01-05T00:15:16.981Z,0
2017-01-05T00:16:16.582Z,0
2017-01-05T00:17:16.203Z,0
2017-01-05T00:18:16.244Z,0
2017-01-05T00:19:16.262Z,0
2017-01-05T00:20:17.034Z,0
2017-01-05T00:21:16.267Z,0
2017-01-05T00:22:16.661Z,0
2017-01-05T00:23:16.680Z,0
2017-01-05T00:24:17.083Z,0
2017-01-05T00:25:16.705Z,0
2017-01-05T00:26:16.327Z,0
2017-01-05T00:27:16.334Z,0
2017-01-05T00:28:16.348Z,0
2017-01-05T00:29:16.763Z,0
2017-01-05T00:30:16.761Z,0
2017-01-05T00:31:17.226Z,0
2017-01-05T00:32:17.185Z,0
2017-01-05T00:33:16.401Z,0
2017-01-05T00:34:17.212Z,0
2017-01-05T00:35:16.426Z,0
2017-01-05T00:36:16.837Z,0
2017-01-05T00:37:17.721Z,0
2017-01-05T00:38:16.871Z,0
2017-01-05T00:39:16.878Z,0
2017-01-05T00:40:16.499Z,0
2017-01-05T00:41:16.902Z,0
2017-01-05T00:42:16.919Z,0
2017-01-05T00:43:16.527Z,0
2017-01-05T00:44:16.944Z,0
2017-01-05T00:45:17.978Z,0
2017-01-05T00:46:17.360Z,0
2017-01-05T00:47:16.576Z,0
2017-01-05T00:48:16.589Z,0
2017-01-05T00:49:16.998Z,0
2017-01-05T00:50:18.073Z,0
2017-01-05T00:51:18.531Z,0
2017-01-05T00:52:17.458Z,0
2017-01-05T00:53:17.078Z,0
2017-01-05T00:54:16.661Z,0
2017-01-05T00:55:17.104Z,0
2017-01-05T00:56:17.086Z,0
2017-01-05T00:57:17.673Z,0
2017-01-05T00:58:16.723Z,0
2017-01-05T00:59:17.925Z,0
2017-01-05T01:00:17.540Z,0
2017-01-05T01:01:16.352Z,0
2017-01-05T01:02:17.172Z,0
2017-01-05T01:03:16.790Z,0
2017-01-05T01:04:17.191Z,0
2017-01-05T01:05:17.195Z,0
2017-01-05T01:06:16.822Z,0
2017-01-05T01:07:16.827Z,0
2017-01-05T01:08:17.633Z,0
2017-01-05T01:09:16.855Z,0
2017-01-05T01:10:17.667Z,0
2017-01-05T01:11:18.076Z,0
2017-01-05T01:12:16.914Z,0
2017-01-05T01:13:17.318Z,0
2017-01-05T01:14:17.715Z,0
2017-01-05T01:15:17.322Z,0
2017-01-05T01:16:17.735Z,0
2017-01-05T01:17:16.977Z,0
2017-01-05T01:18:16.966Z,0
2017-01-05T01:19:17.774Z,0
2017-01-05T01:20:16.986Z,0
2017-01-05T01:21:17.797Z,0
2017-01-05T01:22:17.810Z,0
2017-01-05T01:23:17.445Z,0
2017-01-05T01:24:17.457Z,0
2017-01-05T01:25:17.444Z,0
2017-01-05T01:26:17.063Z,0
2017-01-05T01:27:18.270Z,0
2017-01-05T01:28:17.484Z,0
2017-01-05T01:29:17.527Z,0
2017-01-05T01:30:17.512Z,0
2017-01-05T01:31:17.518Z,0
2017-01-05T01:32:17.141Z,0
2017-01-05T01:33:17.564Z,0
2017-01-05T01:34:16.774Z,0
2017-01-05T01:35:17.572Z,0
2017-01-05T01:36:17.583Z,0
2017-01-05T01:37:17.993Z,0
2017-01-05T01:38:17.613Z,0
2017-01-05T01:39:18.050Z,0
2017-01-05T01:40:17.628Z,0
2017-01-05T01:41:18.040Z,0
2017-01-05T01:42:16.856Z,0
2017-01-05T01:43:17.275Z,0
2017-01-05T01:44:17.679Z,0
2017-01-05T01:45:17.695Z,0
2017-01-05T01:46:17.311Z,0
2017-01-05T01:47:18.122Z,0
2017-01-05T01:48:18.161Z,0
2017-01-05T01:49:17.743Z,0
2017-01-05T01:50:18.179Z,0
2017-01-05T01:51:17.372Z,0
2017-01-05T01:52:17.791Z,0
2017-01-05T01:53:18.206Z,0
2017-01-05T01:54:17.805Z,0
2017-01-05T01:55:17.816Z,0
2017-01-05T01:56:18.639Z,0
2017-01-05T01:57:17.448Z,0
2017-01-05T01:58:17.852Z,0
2017-01-05T01:59:18.671Z,0
2017-01-05T02:00:17.908Z,0
2017-01-05T02:01:18.686Z,0
2017-01-05T02:02:17.919Z,0
2017-01-05T02:03:17.918Z,0
2017-01-05T02:04:17.539Z,0
2017-01-05T02:05:17.563Z,0
2017-01-05T02:06:17.955Z,0
2017-01-05T02:07:17.964Z,0
2017-01-05T02:08:17.585Z,0
2017-01-05T02:09:17.593Z,0
2017-01-05T02:10:17.204Z,0
2017-01-05T02:11:17.614Z,0
2017-01-05T02:12:18.426Z,0
2017-01-05T02:13:18.037Z,0
2017-01-05T02:14:18.064Z,0
2017-01-05T02:15:18.492Z,0
2017-01-05T02:16:18.569Z,0
2017-01-05T02:17:17.295Z,0
2017-01-05T02:18:18.110Z,0
2017-01-05T02:19:18.116Z,0
2017-01-05T02:20:18.532Z,0
2017-01-05T02:21:17.345Z,0
2017-01-05T02:22:18.549Z,0
2017-01-05T02:23:18.181Z,0
2017-01-05T02:24:17.790Z,0
2017-01-05T02:25:17.794Z,0
2017-01-05T02:26:18.203Z,0
2017-01-05T02:27:17.817Z,0
2017-01-05T02:28:18.627Z,0
2017-01-05T02:29:19.036Z,0
2017-01-05T02:30:17.914Z,0
2017-01-05T02:31:17.875Z,0
2017-01-05T02:32:17.478Z,0
2017-01-05T02:33:18.684Z,0
2017-01-05T02:34:18.335Z,0
2017-01-05T02:35:18.718Z,0
2017-01-05T02:36:18.750Z,0
2017-01-05T02:37:17.961Z,0
2017-01-05T02:38:18.343Z,0
2017-01-05T02:39:17.960Z,0
2017-01-05T02:40:19.189Z,0
2017-01-05T02:41:17.992Z,0
2017-01-05T02:42:18.410Z,0
2017-01-05T02:43:18.012Z,0
2017-01-05T02:44:19.229Z,0
2017-01-05T02:45:18.852Z,0
2017-01-05T02:46:18.071Z,0
2017-01-05T02:47:18.059Z,0
2017-01-05T02:48:19.268Z,0
2017-01-05T02:49:18.083Z,0
2017-01-05T02:50:18.893Z,0
2017-01-05T02:51:17.712Z,0
2017-01-05T02:52:18.929Z,0
2017-01-05T02:53:18.540Z,0
2017-01-05T02:54:17.750Z,0
2017-01-05T02:55:18.960Z,0
2017-01-05T02:56:18.175Z,0
2017-01-05T02:57:18.184Z,0
2017-01-05T02:58:18.200Z,0
2017-01-05T02:59:18.214Z,0
2017-01-05T03:00:18.225Z,0
2017-01-05T03:01:19.054Z,0
2017-01-05T03:02:18.245Z,0
2017-01-05T03:03:18.259Z,0
2017-01-05T03:04:18.289Z,0
2017-01-05T03:05:18.281Z,0
2017-01-05T03:06:18.314Z,0
2017-01-05T03:07:18.710Z,0
2017-01-05T03:08:18.737Z,0
2017-01-05T03:09:19.550Z,0
2017-01-05T03:10:18.346Z,0
2017-01-05T03:11:18.361Z,0
2017-01-05T03:12:18.372Z,0
2017-01-05T03:13:18.785Z,0
2017-01-05T03:14:18.006Z,0
2017-01-05T03:15:18.842Z,0
2017-01-05T03:16:19.216Z,0
2017-01-05T03:17:18.442Z,0
2017-01-05T03:18:19.263Z,0
2017-01-05T03:19:18.450Z,0
2017-01-05T03:20:19.665Z,0
2017-01-05T03:21:18.881Z,0
2017-01-05T03:22:19.692Z,0
2017-01-05T03:23:18.506Z,0
2017-01-05T03:24:19.318Z,0
2017-01-05T03:25:19.755Z,0
2017-01-05T03:26:18.554Z,0
2017-01-05T03:27:18.956Z,0
2017-01-05T03:28:18.567Z,0
2017-01-05T03:29:19.376Z,0
2017-01-05T03:30:18.191Z,0
2017-01-05T03:31:19.013Z,0
2017-01-05T03:32:19.018Z,0
2017-01-05T03:33:18.625Z,0
2017-01-05T03:34:19.436Z,0
2017-01-05T03:35:19.471Z,0
2017-01-05T03:36:18.282Z,0
2017-01-05T03:37:18.677Z,0
2017-01-05T03:38:19.095Z,0
2017-01-05T03:39:19.495Z,0
2017-01-05T03:40:18.712Z,0
2017-01-05T03:41:19.126Z,0
2017-01-05T03:42:19.540Z,0
2017-01-05T03:43:19.175Z,0
2017-01-05T03:44:18.364Z,0
2017-01-05T03:45:18.383Z,0
2017-01-05T03:46:19.183Z,0
2017-01-05T03:47:18.806Z,0
2017-01-05T03:48:20.005Z,0
2017-01-05T03:49:19.221Z,0
2017-01-05T03:50:18.833Z,0
2017-01-05T03:51:20.042Z,0
2017-01-05T03:52:18.861Z,0
2017-01-05T03:53:19.670Z,0
2017-01-05T03:54:19.281Z,0
2017-01-05T03:55:18.906Z,0
2017-01-05T03:56:19.726Z,0
2017-01-05T03:57:19.343Z,0
2017-01-05T03:58:20.134Z,0
2017-01-05T03:59:19.345Z,0
2017-01-05T04:00:19.762Z,0
2017-01-05T04:01:18.575Z,0
2017-01-05T04:02:19.776Z,0
2017-01-05T04:03:19.395Z,0
2017-01-05T04:04:19.796Z,0
2017-01-05T04:05:19.015Z,0
2017-01-05T04:06:19.822Z,0
2017-01-05T04:07:19.447Z,0
2017-01-05T04:08:19.850Z,0
2017-01-05T04:09:20.289Z,0
2017-01-05T04:10:19.076Z,0
2017-01-05T04:11:19.483Z,0
2017-01-05T04:12:19.896Z,0
2017-01-05T04:13:19.907Z,0
2017-01-05T04:14:19.925Z,0
2017-01-05T04:15:19.138Z,0
2017-01-05T04:16:19.159Z,0
2017-01-05T04:17:19.552Z,0
2017-01-05T04:18:19.567Z,0
2017-01-05T04:19:19.979Z,0
2017-01-05T04:20:20.390Z,0
2017-01-05T04:21:20.402Z,0
2017-01-05T04:22:20.017Z,0
2017-01-05T04:23:19.623Z,0
2017-01-05T04:24:19.246Z,0
2017-01-05T04:25:19.241Z,0
2017-01-05T04:26:19.266Z,0
2017-01-05T04:27:18.870Z,0
2017-01-05T04:28:18.882Z,0
2017-01-05T04:29:19.306Z,0
2017-01-05T04:30:19.707Z,0
2017-01-05T04:31:20.515Z,0
2017-01-05T04:32:18.976Z,0
2017-01-05T04:33:20.146Z,0
2017-01-05T04:34:18.980Z,0
2017-01-05T04:35:19.758Z,0
2017-01-05T04:36:20.169Z,0
2017-01-05T04:37:19.380Z,0
2017-01-05T04:38:19.403Z,0
2017-01-05T04:39:20.209Z,0
2017-01-05T04:40:19.415Z,0
2017-01-05T04:41:19.452Z,0
2017-01-05T04:42:19.834Z,0
2017-01-05T04:43:19.852Z,0
2017-01-05T04:44:19.462Z,0
2017-01-05T04:45:19.477Z,0
2017-01-05T04:46:19.900Z,0
2017-01-05T04:47:19.898Z,0
2017-01-05T04:48:19.914Z,0
2017-01-05T04:49:20.314Z,0
2017-01-05T04:50:19.145Z,0
2017-01-05T04:51:20.357Z,0
2017-01-05T04:52:19.946Z,0
2017-01-05T04:53:19.567Z,0
2017-01-05T04:54:20.371Z,0
2017-01-05T04:55:19.590Z,0
2017-01-05T04:56:20.392Z,0
2017-01-05T04:57:20.010Z,0
2017-01-05T04:58:20.444Z,0
2017-01-05T04:59:20.826Z,0
2017-01-05T05:00:20.047Z,0
2017-01-05T05:01:20.050Z,0
2017-01-05T05:02:20.099Z,0
2017-01-05T05:03:20.470Z,0
2017-01-05T05:04:20.481Z,0
2017-01-05T05:05:20.093Z,0
2017-01-05T05:06:20.109Z,0
2017-01-05T05:07:20.138Z,0
2017-01-05T05:08:19.740Z,0
2017-01-05T05:09:20.951Z,0
2017-01-05T05:10:19.748Z,0
2017-01-05T05:11:20.564Z,0
2017-01-05T05:12:19.407Z,0
2017-01-05T05:13:20.183Z,0
2017-01-05T05:14:20.991Z,0
2017-01-05T05:15:20.595Z,0
2017-01-05T05:16:20.231Z,0
2017-01-05T05:17:20.620Z,0
2017-01-05T05:18:20.234Z,0
2017-01-05T05:19:20.241Z,0
2017-01-05T05:20:20.256Z,0
2017-01-05T05:21:20.668Z,0
2017-01-05T05:22:19.482Z,0
2017-01-05T05:23:21.115Z,0
2017-01-05T05:24:20.318Z,0
2017-01-05T05:25:19.527Z,0
2017-01-05T05:26:20.316Z,0
2017-01-05T05:27:20.728Z,0
2017-01-05T05:28:19.545Z,0
2017-01-05T05:29:20.759Z,0
2017-01-05T05:30:20.383Z,0
2017-01-05T05:31:20.383Z,0
2017-01-05T05:32:19.998Z,0
2017-01-05T05:33:20.001Z,0
2017-01-05T05:34:20.033Z,0
2017-01-05T05:35:21.212Z,0
2017-01-05T05:36:20.423Z,0
2017-01-05T05:37:20.439Z,0
2017-01-05T05:38:20.051Z,0
2017-01-05T05:39:20.857Z,0
2017-01-05T05:40:20.871Z,0
2017-01-05T05:41:20.477Z,0
2017-01-05T05:42:20.490Z,0
2017-01-05T05:43:20.496Z,0
2017-01-05T05:44:19.714Z,0
2017-01-05T05:45:20.922Z,0
2017-01-05T05:46:20.135Z,0
2017-01-05T05:47:19.748Z,0
2017-01-05T05:48:20.561Z,0
2017-01-05T05:49:20.181Z,0
2017-01-05T05:50:20.178Z,0
2017-01-05T05:51:20.586Z,0
2017-01-05T05:52:20.200Z,0
2017-01-05T05:53:20.210Z,0
2017-01-05T05:54:20.618Z,0
2017-01-05T05:55:21.036Z,0
2017-01-05T05:56:20.642Z,0
2017-01-05T05:57:20.251Z,0
2017-01-05T05:58:20.661Z,0
2017-01-05T05:59:20.705Z,0
2017-01-05T06:00:20.285Z,0
2017-01-05T06:01:20.701Z,0
2017-01-05T06:02:21.105Z,0
2017-01-05T06:03:21.120Z,0
2017-01-05T06:04:20.345Z,0
2017-01-05T06:05:21.157Z,0
2017-01-05T06:06:20.345Z,0
2017-01-05T06:07:21.161Z,0
2017-01-05T06:08:20.769Z,0
2017-01-05T06:09:20.778Z,0
2017-01-05T06:10:20.392Z,0
2017-01-05T06:11:20.410Z,0
2017-01-05T06:12:21.207Z,0
2017-01-05T06:13:20.433Z,0
2017-01-05T06:14:20.833Z,0
2017-01-05T06:15:21.245Z,0
2017-01-05T06:16:21.677Z,0
2017-01-05T06:17:20.862Z,0
2017-01-05T06:18:20.477Z,0
2017-01-05T06:19:21.690Z,0
2017-01-05T06:20:20.101Z,0
2017-01-05T06:21:20.506Z,0
2017-01-05T06:22:20.924Z,0
2017-01-05T06:23:20.531Z,0
2017-01-05T06:24:20.535Z,0
2017-01-05T06:25:20.555Z,0
2017-01-05T06:26:20.963Z,0
2017-01-05T06:27:20.977Z,0
2017-01-05T06:28:21.779Z,0
2017-01-05T06:29:20.587Z,0
2017-01-05T06:30:21.419Z,0
2017-01-05T06:31:21.012Z,0
2017-01-05T06:32:21.817Z,0
2017-01-05T06:33:20.637Z,0
2017-01-05T06:34:21.441Z,0
2017-01-05T06:35:21.456Z,0
2017-01-05T06:36:20.270Z,0
2017-01-05T06:37:20.674Z,0
2017-01-05T06:38:21.888Z,0
2017-01-05T06:39:20.699Z,0
2017-01-05T06:40:21.110Z,0
2017-01-05T06:41:20.320Z,0
2017-01-05T06:42:21.525Z,0
2017-01-05T06:43:21.541Z,0
2017-01-05T06:44:20.764Z,0
2017-01-05T06:45:21.174Z,0
2017-01-05T06:46:20.803Z,0
2017-01-05T06:47:20.808Z,0
2017-01-05T06:48:21.594Z,0
2017-01-05T06:49:20.803Z,0
2017-01-05T06:50:20.832Z,0
2017-01-05T06:51:21.224Z,0
2017-01-05T06:52:21.630Z,0
2017-01-05T06:53:20.864Z,0
2017-01-05T06:54:21.275Z,0
2017-01-05T06:55:21.295Z,0
2017-01-05T06:56:21.278Z,0
2017-01-05T06:57:22.091Z,0
2017-01-05T06:58:20.902Z,0
2017-01-05T06:59:20.909Z,0
2017-01-05T07:00:20.523Z,0
2017-01-05T07:01:21.735Z,0
2017-01-05T07:02:20.949Z,0
2017-01-05T07:03:21.759Z,0
2017-01-05T07:04:20.965Z,0
2017-01-05T07:05:20.975Z,0
2017-01-05T07:06:21.387Z,0
2017-01-05T07:07:21.003Z,0
2017-01-05T07:08:21.814Z,0
2017-01-05T07:09:21.027Z,0
2017-01-05T07:10:21.444Z,0
2017-01-05T07:11:21.043Z,0
2017-01-05T07:12:21.471Z,0
2017-01-05T07:13:20.664Z,0
2017-01-05T07:14:20.673Z,0
2017-01-05T07:15:21.484Z,0
2017-01-05T07:16:21.493Z,0
2017-01-05T07:17:21.510Z,0
2017-01-05T07:18:21.124Z,0
2017-01-05T07:19:22.351Z,0
2017-01-05T07:20:21.142Z,0
2017-01-05T07:21:21.943Z,0
2017-01-05T07:22:21.559Z,0
2017-01-05T07:23:21.970Z,0
2017-01-05T07:24:21.187Z,0
2017-01-05T07:25:21.189Z,0
2017-01-05T07:26:22.036Z,0
2017-01-05T07:27:21.622Z,0
2017-01-05T07:28:21.624Z,0
2017-01-05T07:29:20.834Z,0
2017-01-05T07:30:21.654Z,0
2017-01-05T07:31:21.293Z,0
2017-01-05T07:32:21.669Z,0
2017-01-05T07:33:22.498Z,0
2017-01-05T07:34:21.291Z,0
2017-01-05T07:35:22.096Z,0
2017-01-05T07:36:20.911Z,0
2017-01-05T07:37:20.922Z,0
2017-01-05T07:38:22.140Z,0
2017-01-05T07:39:21.347Z,0
2017-01-05T07:40:21.758Z,0
2017-01-05T07:41:21.769Z,0
2017-01-05T07:42:21.781Z,0
2017-01-05T07:43:21.808Z,0
2017-01-05T07:44:22.210Z,0
2017-01-05T07:45:21.831Z,0
2017-01-05T07:46:22.216Z,0
2017-01-05T07:47:21.429Z,0
2017-01-05T07:48:21.844Z,0
2017-01-05T07:49:21.459Z,0
2017-01-05T07:50:22.268Z,0
2017-01-05T07:51:22.687Z,0
2017-01-05T07:52:22.282Z,0
2017-01-05T07:53:22.292Z,0
2017-01-05T07:54:22.313Z,0
2017-01-05T07:55:21.553Z,0
2017-01-05T07:56:21.928Z,0
2017-01-05T07:57:21.543Z,0
2017-01-05T07:58:21.554Z,0
2017-01-05T07:59:21.565Z,0
2017-01-05T08:00:21.574Z,0
2017-01-05T08:01:22.401Z,0
2017-01-05T08:02:21.595Z,0
2017-01-05T08:03:22.398Z,0
2017-01-05T08:04:21.617Z,0
2017-01-05T08:05:21.628Z,0
2017-01-05T08:06:22.042Z,0
2017-01-05T08:07:22.050Z,0
2017-01-05T08:08:21.674Z,0
2017-01-05T08:09:22.073Z,0
2017-01-05T08:10:21.684Z,0
2017-01-05T08:11:22.096Z,0
2017-01-05T08:12:22.107Z,0
2017-01-05T08:13:22.512Z,0
2017-01-05T08:14:21.728Z,0
2017-01-05T08:15:22.138Z,0
2017-01-05T08:16:21.762Z,0
2017-01-05T08:17:22.171Z,0
2017-01-05T08:18:22.198Z,0
2017-01-05T08:19:22.977Z,0
2017-01-05T08:20:22.993Z,0
2017-01-05T08:21:22.204Z,0
2017-01-05T08:22:22.659Z,0
2017-01-05T08:23:22.227Z,0
2017-01-05T08:24:22.640Z,5
2017-01-05T08:25:22.657Z,5
2017-01-05T08:26:22.667Z,5
2017-01-05T08:27:21.886Z,0
2017-01-05T08:28:21.888Z,5
2017-01-05T08:29:22.296Z,5
2017-01-05T08:30:21.910Z,5
2017-01-05T08:31:21.519Z,5
2017-01-05T08:32:21.537Z,5
2017-01-05T08:33:21.969Z,5
2017-01-05T08:34:22.749Z,5
2017-01-05T08:35:22.396Z,5
2017-01-05T08:36:21.997Z,5
2017-01-05T08:37:22.387Z,5
2017-01-05T08:38:22.407Z,5
2017-01-05T08:39:22.012Z,5
2017-01-05T08:40:22.028Z,0
2017-01-05T08:41:22.828Z,0
2017-01-05T08:42:22.447Z,0
2017-01-05T08:43:22.457Z,0
2017-01-05T08:44:22.864Z,0
2017-01-05T08:45:22.896Z,0
2017-01-05T08:46:22.887Z,0
2017-01-05T08:47:22.100Z,0
2017-01-05T08:48:22.915Z,5
2017-01-05T08:49:22.518Z,5
2017-01-05T08:50:22.532Z,5
2017-01-05T08:51:22.546Z,5
2017-01-05T08:52:22.971Z,5
2017-01-05T08:53:22.968Z,5
2017-01-05T08:54:22.185Z,5
2017-01-05T08:55:22.590Z,5
2017-01-05T08:56:22.198Z,5
2017-01-05T08:57:23.408Z,5
2017-01-05T08:58:21.855Z,5
2017-01-05T08:59:22.628Z,5
2017-01-05T09:00:23.040Z,5
2017-01-05T09:01:22.660Z,5
2017-01-05T09:02:23.065Z,5
2017-01-05T09:03:22.279Z,5
2017-01-05T09:04:22.685Z,5
2017-01-05T09:05:22.730Z,5
2017-01-05T09:06:23.117Z,5
2017-01-05T09:07:22.717Z,5
2017-01-05T09:08:22.751Z,5
2017-01-05T09:09:22.388Z,5
2017-01-05T09:10:23.558Z,5
2017-01-05T09:11:22.769Z,5
2017-01-05T09:12:22.776Z,5
2017-01-05T09:13:22.390Z,5
2017-01-05T09:14:22.004Z,5
2017-01-05T09:15:22.814Z,5
2017-01-05T09:16:22.422Z,10
2017-01-05T09:17:23.270Z,10
2017-01-05T09:18:22.448Z,10
2017-01-05T09:19:22.085Z,10
2017-01-05T09:20:22.871Z,15
2017-01-05T09:21:23.277Z,15
2017-01-05T09:22:23.011Z,15
2017-01-05T09:23:23.303Z,15
2017-01-05T09:24:22.914Z,15
2017-01-05T09:25:22.519Z,15
2017-01-05T09:26:23.347Z,15
2017-01-05T09:27:23.359Z,15
2017-01-05T09:28:23.356Z,15
2017-01-05T09:29:22.965Z,15
2017-01-05T09:30:22.579Z,15
2017-01-05T09:31:22.987Z,15
2017-01-05T09:32:22.994Z,15
2017-01-05T09:33:23.408Z,15
2017-01-05T09:34:23.823Z,15
2017-01-05T09:35:23.036Z,15
2017-01-05T09:36:23.438Z,15
2017-01-05T09:37:23.447Z,15
2017-01-05T09:38:23.498Z,10
2017-01-05T09:39:23.074Z,10
2017-01-05T09:40:23.084Z,10
2017-01-05T09:41:22.301Z,10
2017-01-05T09:42:23.506Z,10
2017-01-05T09:43:23.557Z,10
2017-01-05T09:44:22.756Z,10
2017-01-05T09:45:23.142Z,15
2017-01-05T09:46:23.564Z,15
2017-01-05T09:47:23.164Z,15
2017-01-05T09:48:23.652Z,15
2017-01-05T09:49:23.192Z,15
2017-01-05T09:50:22.799Z,15
2017-01-05T09:51:23.016Z,15
2017-01-05T09:52:23.256Z,15
2017-01-05T09:53:23.232Z,15
2017-01-05T09:54:23.246Z,15
2017-01-05T09:55:23.651Z,20
2017-01-05T09:56:23.661Z,20
2017-01-05T09:57:22.878Z,20
2017-01-05T09:58:22.888Z,20
2017-01-05T09:59:23.300Z,20
2017-01-05T10:00:23.705Z,15
2017-01-05T10:01:22.918Z,15
2017-01-05T10:02:23.328Z,15
2017-01-05T10:03:23.338Z,15
2017-01-05T10:04:23.381Z,15
2017-01-05T10:05:23.361Z,15
2017-01-05T10:06:23.373Z,15
2017-01-05T10:07:23.177Z,15
2017-01-05T10:08:23.399Z,15
2017-01-05T10:09:23.814Z,15
2017-01-05T10:10:23.111Z,15
2017-01-05T10:11:24.243Z,15
2017-01-05T10:12:22.639Z,15
2017-01-05T10:13:23.602Z,15
2017-01-05T10:14:23.864Z,15
2017-01-05T10:15:23.872Z,15
2017-01-05T10:16:23.492Z,15
2017-01-05T10:17:22.699Z,15
2017-01-05T10:18:23.507Z,15
2017-01-05T10:19:22.722Z,15
2017-01-05T10:20:23.537Z,20
2017-01-05T10:21:23.552Z,20
2017-01-05T10:22:23.955Z,20
2017-01-05T10:23:23.565Z,20
2017-01-05T10:24:23.182Z,20
2017-01-05T10:25:23.988Z,20
2017-01-05T10:26:23.618Z,20
2017-01-05T10:27:22.833Z,25
2017-01-05T10:28:23.246Z,25
2017-01-05T10:29:24.435Z,25
2017-01-05T10:30:23.245Z,30
2017-01-05T10:31:22.855Z,30
2017-01-05T10:32:24.064Z,30
2017-01-05T10:33:24.085Z,30
2017-01-05T10:34:24.089Z,30
2017-01-05T10:35:23.707Z,30
2017-01-05T10:36:22.933Z,35
2017-01-05T10:37:22.950Z,35
2017-01-05T10:38:23.739Z,35
2017-01-05T10:39:23.748Z,35
2017-01-05T10:40:23.363Z,35
2017-01-05T10:41:23.378Z,35
2017-01-05T10:42:23.788Z,35
2017-01-05T10:43:24.198Z,35
2017-01-05T10:44:23.826Z,35
2017-01-05T10:45:24.230Z,35
2017-01-05T10:46:24.236Z,35
2017-01-05T10:47:23.848Z,40
2017-01-05T10:48:23.855Z,45
2017-01-05T10:49:23.075Z,35
2017-01-05T10:50:24.274Z,35
2017-01-05T10:51:24.297Z,35
2017-01-05T10:52:23.912Z,35
2017-01-05T10:53:23.924Z,35
2017-01-05T10:54:23.158Z,30
2017-01-05T10:55:23.969Z,30
2017-01-05T10:56:23.951Z,30
2017-01-05T10:57:24.765Z,35
2017-01-05T10:58:23.986Z,35
2017-01-05T10:59:23.198Z,35
2017-01-05T11:00:24.005Z,35
2017-01-05T11:01:23.618Z,35
2017-01-05T11:02:24.425Z,35
2017-01-05T11:03:23.634Z,40
2017-01-05T11:04:24.447Z,35
2017-01-05T11:05:23.677Z,35
2017-01-05T11:06:24.525Z,35
2017-01-05T11:07:23.709Z,35
2017-01-05T11:08:24.096Z,30
2017-01-05T11:09:24.506Z,30
2017-01-05T11:10:24.518Z,30
2017-01-05T11:11:24.142Z,30
2017-01-05T11:12:23.745Z,30
2017-01-05T11:13:24.154Z,30
2017-01-05T11:14:24.972Z,30
2017-01-05T11:15:24.192Z,30
2017-01-05T11:16:24.642Z,25
2017-01-05T11:17:23.800Z,25
2017-01-05T11:18:23.812Z,25
2017-01-05T11:19:24.625Z,20
2017-01-05T11:20:24.235Z,20
2017-01-05T11:21:24.648Z,20
2017-01-05T11:22:24.271Z,20
2017-01-05T11:23:24.290Z,20
2017-01-05T11:24:23.503Z,20
2017-01-05T11:25:24.315Z,20
2017-01-05T11:26:24.311Z,15
2017-01-05T11:27:23.944Z,15
2017-01-05T11:28:24.334Z,15
2017-01-05T11:29:24.364Z,15
2017-01-05T11:30:24.361Z,15
2017-01-05T11:31:23.572Z,15
2017-01-05T11:32:23.982Z,20
2017-01-05T11:33:24.385Z,20
2017-01-05T11:34:24.400Z,20
2017-01-05T11:35:24.016Z,20
2017-01-05T11:36:24.022Z,20
2017-01-05T11:37:24.049Z,20
2017-01-05T11:38:24.448Z,20
2017-01-05T11:39:24.060Z,20
2017-01-05T11:40:24.873Z,20
2017-01-05T11:41:24.490Z,20
2017-01-05T11:42:24.920Z,15
2017-01-05T11:43:24.543Z,15
2017-01-05T11:44:24.931Z,15
2017-01-05T11:45:24.525Z,15
2017-01-05T11:46:24.541Z,15
2017-01-05T11:47:24.954Z,20
2017-01-05T11:48:24.168Z,20
2017-01-05T11:49:24.995Z,20
2017-01-05T11:50:25.392Z,20
2017-01-05T11:51:24.237Z,20
2017-01-05T11:52:24.214Z,20
2017-01-05T11:53:24.234Z,20
2017-01-05T11:54:24.669Z,20
2017-01-05T11:55:24.646Z,20
2017-01-05T11:56:25.063Z,20
2017-01-05T11:57:23.877Z,20
2017-01-05T11:58:24.309Z,20
2017-01-05T11:59:24.710Z,20
2017-01-05T12:00:24.714Z,15
2017-01-05T12:01:24.734Z,15
2017-01-05T12:02:24.748Z,15
2017-01-05T12:03:24.748Z,15
2017-01-05T12:04:24.384Z,20
2017-01-05T12:05:24.402Z,20
2017-01-05T12:06:24.800Z,20
2017-01-05T12:07:24.399Z,20
2017-01-05T12:08:24.806Z,20
2017-01-05T12:09:25.609Z,20
2017-01-05T12:10:24.426Z,15
2017-01-05T12:11:24.838Z,15
2017-01-05T12:12:25.250Z,15
2017-01-05T12:13:25.271Z,15
2017-01-05T12:14:24.493Z,15
2017-01-05T12:15:24.106Z,15
2017-01-05T12:16:24.901Z,15
2017-01-05T12:17:25.313Z,15
2017-01-05T12:18:24.952Z,15
2017-01-05T12:19:24.936Z,15
2017-01-05T12:20:24.952Z,20
2017-01-05T12:21:25.370Z,20
2017-01-05T12:22:24.601Z,20
2017-01-05T12:23:24.987Z,20
2017-01-05T12:24:25.001Z,20
2017-01-05T12:25:24.999Z,20
2017-01-05T12:26:25.027Z,20
2017-01-05T12:27:24.637Z,20
2017-01-05T12:28:25.045Z,20
2017-01-05T12:29:25.455Z,20
2017-01-05T12:30:24.678Z,25
2017-01-05T12:31:25.104Z,25
2017-01-05T12:32:25.119Z,25
2017-01-05T12:33:25.105Z,25
2017-01-05T12:34:25.108Z,25
2017-01-05T12:35:25.525Z,25
2017-01-05T12:36:25.140Z,25
2017-01-05T12:37:25.550Z,25
2017-01-05T12:38:25.568Z,25
2017-01-05T12:39:24.374Z,25
2017-01-05T12:40:25.581Z,20
2017-01-05T12:41:24.821Z,20
2017-01-05T12:42:25.209Z,20
2017-01-05T12:43:25.218Z,20
2017-01-05T12:44:25.634Z,20
2017-01-05T12:45:25.244Z,20
2017-01-05T12:46:24.460Z,20
2017-01-05T12:47:24.881Z,20
2017-01-05T12:48:25.285Z,20
2017-01-05T12:49:25.300Z,20
2017-01-05T12:50:24.913Z,20
2017-01-05T12:51:25.319Z,20
2017-01-05T12:52:25.329Z,20
2017-01-05T12:53:24.944Z,20
2017-01-05T12:54:25.353Z,20
2017-01-05T12:55:24.965Z,20
2017-01-05T12:56:24.980Z,20
2017-01-05T12:57:24.991Z,20
2017-01-05T12:58:26.200Z,20
2017-01-05T12:59:25.806Z,20
2017-01-05T13:00:25.058Z,15
2017-01-05T13:01:25.437Z,15
2017-01-05T13:02:25.452Z,15
2017-01-05T13:03:25.062Z,15
2017-01-05T13:04:25.867Z,15
2017-01-05T13:05:25.494Z,15
2017-01-05T13:06:25.495Z,15
2017-01-05T13:07:25.109Z,15
2017-01-05T13:08:25.932Z,15
2017-01-05T13:09:25.142Z,20
2017-01-05T13:10:25.543Z,20
2017-01-05T13:11:25.954Z,20
2017-01-05T13:12:25.562Z,20
2017-01-05T13:13:25.574Z,20
2017-01-05T13:14:25.188Z,20
2017-01-05T13:15:25.996Z,20
2017-01-05T13:16:26.405Z,20
2017-01-05T13:17:25.240Z,20
2017-01-05T13:18:25.645Z,15
2017-01-05T13:19:25.663Z,15
2017-01-05T13:20:25.256Z,15
2017-01-05T13:21:25.671Z,15
2017-01-05T13:22:25.677Z,15
2017-01-05T13:23:25.695Z,15
2017-01-05T13:24:26.126Z,15
2017-01-05T13:25:26.114Z,15
2017-01-05T13:26:25.728Z,15
2017-01-05T13:27:26.137Z,15
2017-01-05T13:28:25.751Z,20
2017-01-05T13:29:26.158Z,20
2017-01-05T13:30:25.772Z,20
2017-01-05T13:31:26.230Z,15
2017-01-05T13:32:26.600Z,15
2017-01-05T13:33:26.229Z,15
2017-01-05T13:34:25.429Z,15
2017-01-05T13:35:25.838Z,20
2017-01-05T13:36:26.279Z,15
2017-01-05T13:37:25.062Z,15
2017-01-05T13:38:25.493Z,15
2017-01-05T13:39:25.488Z,20
2017-01-05T13:40:25.889Z,20
2017-01-05T13:41:25.906Z,25
2017-01-05T13:42:26.716Z,20
2017-01-05T13:43:25.536Z,15
2017-01-05T13:44:25.943Z,15
2017-01-05T13:45:25.587Z,15
2017-01-05T13:46:26.167Z,15
2017-01-05T13:47:25.188Z,15
2017-01-05T13:48:25.205Z,10
2017-01-05T13:49:26.000Z,10
2017-01-05T13:50:25.610Z,10
2017-01-05T13:51:26.025Z,10
2017-01-05T13:52:26.836Z,10
2017-01-05T13:53:26.050Z,10
2017-01-05T13:54:25.662Z,10
2017-01-05T13:55:26.080Z,10
2017-01-05T13:56:26.092Z,10
2017-01-05T13:57:26.104Z,10
2017-01-05T13:58:25.311Z,10
2017-01-05T13:59:25.720Z,5
2017-01-05T14:00:25.730Z,5
2017-01-05T14:01:26.548Z,5
2017-01-05T14:02:26.163Z,5
2017-01-05T14:03:26.166Z,5
2017-01-05T14:04:26.177Z,5
2017-01-05T14:05:26.604Z,10
2017-01-05T14:06:26.606Z,10
2017-01-05T14:07:26.226Z,10
2017-01-05T14:08:26.222Z,10
2017-01-05T14:09:26.240Z,10
2017-01-05T14:10:26.248Z,10
2017-01-05T14:11:26.664Z,10
2017-01-05T14:12:26.277Z,10
2017-01-05T14:13:26.283Z,10
2017-01-05T14:14:25.515Z,15
2017-01-05T14:15:25.907Z,15
2017-01-05T14:16:26.334Z,15
2017-01-05T14:17:25.930Z,15
2017-01-05T14:18:27.142Z,15
2017-01-05T14:19:25.959Z,15
2017-01-05T14:20:26.571Z,15
2017-01-05T14:21:25.986Z,15
2017-01-05T14:22:26.792Z,15
2017-01-05T14:23:26.001Z,15
2017-01-05T14:24:26.807Z,15
2017-01-05T14:25:26.423Z,15
2017-01-05T14:26:26.459Z,15
2017-01-05T14:27:25.644Z,15
2017-01-05T14:28:26.856Z,15
2017-01-05T14:29:26.465Z,15
2017-01-05T14:30:26.486Z,15
2017-01-05T14:31:27.301Z,15
2017-01-05T14:32:26.908Z,15
2017-01-05T14:33:26.520Z,15
2017-01-05T14:34:26.526Z,15
2017-01-05T14:35:26.536Z,15